Terminal Aerodrome Forecast
Issued by NWS

Home | Current Version | Previous Version | Text Only | Print | Product List | Glossary On
Versions: 1 2 3 4 5 6 7 8 9 10 11 12 13 14 15 16 17 18 19 20
000
FTUS43 KGRB 271127
TAFATW
TAF
KATW 271127Z 2712/2812 03010KT P6SM BKN250
     FM271600 04012G24KT P6SM OVC200
     FM280200 05012KT P6SM OVC120
     FM280900 04010KT P6SM SCT060 OVC100 PROB30 2809/2812 -RA
      OVC045=

USA.gov is the U.S. government's official web portal to all federal, state and local government web resources and services.